Pagina principală
METAR-TAF:

METAR-TAF

Aeroporturi :

Cascavel, Paraná, Brazilia

Latitudine: 25-00-08S, longitudine: 53-30-07W, elevație: 754 m

Observații meteo curente

Raportul a fost făcut în urmă cu 45 de minute, la 11:00 UTC
Vânt 12 kt de la Sud
Temperatură 12°C
Umiditate 82%
Presiune 1021 hPa
Vizibilitate de 10 km sau mai mult
nu există nori sub 1.500 m și nici cumulonimbus

METAR: SBCA 181100Z 17012KT CAVOK 12/09 Q1021

Ora: 08:45 (11:45 UTC)


TAF: lipsă

Observații și prognoze meteo pentru peste 4.000 de aeroporturi (rapoarte METAR și TAF).

Stațiile disponibile sunt reprezentate pe hartă prin puncte galbene și roșii.

Țineți indicatorul mouse-ului pe punctul dorit pentru a vedea denumirea stației.

Apoi, faceți clic pentru a vedea observațiile și prognozele meteorologice.

Pentru a schimba harta: Pentru mărire, faceți clic pe butoanele verzi cu cruce neagră; pentru micșorare, pe butonul verde cu o liniuță; pentru hărți învecinate, pe săgețile verzi.


METAR-TAF: